Pagrindinis puslapis
METAR-TAF:

METAR-TAF

Oro uostai :

Monrealis-Trudeau, Kvebekas, Kanada

platuma: 45-28N, ilguma: 073-45W, Aukštis: 31 m

Dabartinis oras

Ataskaita buvo paskelbta 56 minutes, ne 01:00 UTC
Vėjas 5 kt iš Pietų/Pietryčių
Temperatūra 17°C
Drėgmė 59%
Slėgis 1023 hPa
Matomumas: 24.1 km
Su prošvaistėmis ne aukštis 27000 ft

METAR: CYUL 200100Z 16005KT 15SM BKN270 17/09 A3021 RMK CI5 SLP233

Laikas: 21:56 (01:56 UTC)

Prognozė

Ataskaita buvo paskelbta 2 valandos ir 16 minutes, ne 23:40 UTC
Prognozė galioja nuo 20 metu 00 UTC su 20 metu 24 UTC
Vėjas 3 kt nuo kintamojo kryptimis
Matomumas: 10 km
Su prošvaistėmis ne aukštis 25000 ft
Nuo 20 metu 1400 UTC
Vėjas 7 kt iš Vakarų/Pietvakarių
Matomumas: 10 km
Mažai debesys ne aukštis 5000 ft

TAF: CYUL 192340Z 2000/2024 VRB03KT P6SM BKN250 FM201400 25007KT P6SM FEW050 RMK NXT FCST BY 200300Z

Orai ataskaitas ir orų prognozės (METAR, TAF).

turimą stotys yra geltonos ir raudonos taškus žemėlapyje.

Perkelti pele per norėdami pamatyti stoties vardą.

Tada spustelėkite, norėdami matyti oro stebėjimo ir prognozės.

Norėdami pakeisti žemėlapį: spustelėkite ant žalios mygtukų su juodo kryžiaus žemyn,; žalią mygtuką su brūkšneliu, jei norite nutolinti; arba žalių rodyklių gretimoms žemėlapius.


METAR-TAF: